Time;durP1;ratioP1;P1;durP2;ratioP2;P2;SDS_P1;SDS_P2;PMS_P1;PMS_P2;Temp;Humidity;BMP_temperature;BMP_pressure;BME280_temperature;BME280_humidity;BME280_pressure;Samples;Min_cycle;Max_cycle;Signal;HPM_P1;HPM_P2
2023/05/23 00:02:53;;;;;;;16.42;10.02;;;;;15.10;95935.00;;;;8257491;28;20631;-66
2023/05/23 00:06:56;;;;;;;18.55;11.00;;;;;14.90;95936.00;;;;8256658;28;20261;-66
2023/05/23 00:11:01;;;;;;;17.83;11.15;;;;;14.80;95938.00;;;;8258521;28;20253;-66
2023/05/23 00:15:07;;;;;;;20.23;10.55;;;;;14.70;95937.00;;;;8255562;28;20810;-64
2023/05/23 00:19:10;;;;;;;17.15;10.98;;;;;14.60;95938.00;;;;8246376;28;20213;-66
2023/05/23 00:23:19;;;;;;;15.65;11.13;;;;;14.50;95943.00;;;;8247604;28;20222;-66
2023/05/23 00:27:27;;;;;;;15.45;10.77;;;;;14.40;95943.00;;;;8259571;28;20716;-67
2023/05/23 00:31:31;;;;;;;16.40;10.95;;;;;14.40;95944.00;;;;8232499;28;20215;-65
2023/05/23 00:35:38;;;;;;;18.15;10.98;;;;;14.50;95948.00;;;;8254892;28;20199;-65
2023/05/23 00:39:44;;;;;;;14.98;10.70;;;;;14.50;95942.00;;;;8257946;28;20202;-65
2023/05/23 00:43:50;;;;;;;22.65;11.68;;;;;14.60;95951.00;;;;8254746;28;20234;-64
2023/05/23 00:47:53;;;;;;;18.33;12.38;;;;;14.70;95952.00;;;;8259678;28;20791;-65
2023/05/23 00:51:56;;;;;;;18.08;12.02;;;;;14.80;95958.00;;;;8244964;28;20297;-66
2023/05/23 00:56:00;;;;;;;17.90;11.82;;;;;14.90;95954.00;;;;8257611;28;20639;-66
2023/05/23 01:00:08;;;;;;;21.90;12.02;;;;;15.20;95965.00;;;;8256266;28;20293;-65
2023/05/23 01:04:13;;;;;;;17.40;12.05;;;;;15.50;95948.00;;;;8260577;28;20232;-67
2023/05/23 01:08:18;;;;;;;17.48;11.98;;;;;15.70;95949.00;;;;8250763;28;20257;-66
2023/05/23 01:12:29;;;;;;;14.82;10.75;;;;;16.20;95955.00;;;;8255705;28;20207;-65
2023/05/23 01:16:47;;;;;;;16.30;10.55;;;;;16.60;95967.00;;;;8250224;28;20761;-65
2023/05/23 01:20:54;;;;;;;17.58;11.35;;;;;16.90;95970.00;;;;8254557;28;20797;-66
2023/05/23 01:25:10;;;;;;;17.10;11.95;;;;;17.10;95973.00;;;;8255820;28;20238;-65
2023/05/23 01:29:25;;;;;;;15.43;10.95;;;;;17.10;95975.00;;;;8245814;28;20273;-66
2023/05/23 01:33:29;;;;;;;15.82;10.18;;;;;17.30;95981.00;;;;8250686;28;20604;-66
2023/05/23 01:37:32;;;;;;;15.43;10.77;;;;;17.30;95966.00;;;;8251842;28;20572;-65
2023/05/23 01:41:36;;;;;;;15.43;10.90;;;;;17.40;95965.00;;;;8251035;28;20203;-66
2023/05/23 01:45:43;;;;;;;18.13;11.15;;;;;17.50;95959.00;;;;8252990;28;20744;-66
2023/05/23 01:49:50;;;;;;;17.83;11.07;;;;;17.50;95970.00;;;;8251750;28;20242;-67
2023/05/23 01:53:54;;;;;;;19.55;11.40;;;;;17.50;95972.00;;;;8250949;28;20203;-65
2023/05/23 01:57:59;;;;;;;17.55;11.13;;;;;17.50;95965.00;;;;8244480;28;20569;-64
2023/05/23 02:02:06;;;;;;;17.90;10.68;;;;;17.60;95972.00;;;;8252739;28;20199;-66
2023/05/23 02:06:14;;;;;;;18.40;10.73;;;;;17.60;95976.00;;;;8253119;28;20207;-66
2023/05/23 02:10:19;;;;;;;14.40;11.05;;;;;17.70;95970.00;;;;8245570;28;20237;-66
2023/05/23 02:14:22;;;;;;;18.30;12.00;;;;;17.70;95964.00;;;;8253588;28;20209;-66
2023/05/23 02:18:28;;;;;;;14.65;10.77;;;;;17.70;95966.00;;;;8257794;28;20199;-65
2023/05/23 02:22:31;;;;;;;14.63;10.60;;;;;17.70;95964.00;;;;8252603;28;20302;-66
2023/05/23 02:26:36;;;;;;;16.00;10.85;;;;;17.70;95976.00;;;;8246907;28;20199;-69
2023/05/23 02:30:41;;;;;;;17.33;11.18;;;;;17.80;95971.00;;;;8251082;28;20262;-69
2023/05/23 02:34:49;;;;;;;16.98;11.02;;;;;17.80;95972.00;;;;8251134;28;20243;-66
2023/05/23 02:38:55;;;;;;;16.45;11.38;;;;;17.80;95965.00;;;;8251073;28;20258;-65
2023/05/23 02:43:03;;;;;;;15.68;11.00;;;;;17.90;95966.00;;;;8247468;28;20233;-66
2023/05/23 02:47:06;;;;;;;15.60;11.40;;;;;17.90;95965.00;;;;8250375;28;20293;-66
2023/05/23 02:51:13;;;;;;;14.32;10.85;;;;;18.00;95973.00;;;;8249926;28;20230;-64
2023/05/23 02:55:16;;;;;;;16.13;11.23;;;;;18.00;95971.00;;;;8251781;28;20229;-67
2023/05/23 02:59:20;;;;;;;20.77;12.20;;;;;18.00;95961.00;;;;8233272;28;20203;-65
2023/05/23 03:03:27;;;;;;;17.13;11.60;;;;;18.00;95964.00;;;;8247611;23;20235;-66
2023/05/23 03:07:35;;;;;;;17.95;11.35;;;;;18.00;95967.00;;;;8207013;28;20649;-65
2023/05/23 03:11:41;;;;;;;16.02;11.13;;;;;18.00;95964.00;;;;8207195;28;20235;-68
2023/05/23 03:15:45;;;;;;;17.90;11.48;;;;;18.00;95964.00;;;;8204626;28;20208;-66
2023/05/23 03:19:48;;;;;;;16.75;11.55;;;;;18.00;95966.00;;;;8202577;28;20207;-66
2023/05/23 03:23:55;;;;;;;15.52;11.18;;;;;18.00;95960.00;;;;8203311;28;20204;-69
2023/05/23 03:27:58;;;;;;;15.05;11.82;;;;;17.90;95955.00;;;;8207650;28;20278;-65
2023/05/23 03:32:01;;;;;;;18.17;12.32;;;;;17.90;95957.00;;;;8203254;28;20203;-64
2023/05/23 03:36:07;;;;;;;16.15;11.15;;;;;17.90;95967.00;;;;8204336;28;20670;-68
2023/05/23 03:40:14;;;;;;;16.80;12.05;;;;;17.90;95963.00;;;;8208166;28;20204;-67
2023/05/23 03:44:17;;;;;;;18.33;11.50;;;;;17.90;95959.00;;;;8186648;28;20294;-65
2023/05/23 03:48:23;;;;;;;15.45;10.63;;;;;17.90;95971.00;;;;8199180;28;20303;-67
2023/05/23 03:52:26;;;;;;;16.10;11.38;;;;;18.00;95970.00;;;;8220010;28;20290;-67
2023/05/23 03:56:32;;;;;;;17.30;11.43;;;;;18.10;95976.00;;;;8204639;28;20207;-69
2023/05/23 04:00:38;;;;;;;17.02;10.93;;;;;18.10;95973.00;;;;8211563;28;21027;-67
2023/05/23 04:04:47;;;;;;;16.30;11.35;;;;;18.20;95974.00;;;;8220743;28;20262;-67
2023/05/23 04:08:50;;;;;;;16.63;10.65;;;;;18.20;95978.00;;;;8219142;28;20708;-66
2023/05/23 04:12:57;;;;;;;15.18;11.15;;;;;18.20;95978.00;;;;8216666;28;20294;-68
2023/05/23 04:17:02;;;;;;;15.68;11.20;;;;;18.20;95989.00;;;;8210092;28;20697;-66
2023/05/23 04:21:08;;;;;;;16.00;10.45;;;;;18.20;95986.00;;;;8210149;28;20208;-67
2023/05/23 04:25:12;;;;;;;15.50;11.20;;;;;18.20;95995.00;;;;8217858;28;20217;-68
2023/05/23 04:29:17;;;;;;;16.38;11.00;;;;;18.30;95999.00;;;;8216273;28;20265;-66
2023/05/23 04:33:21;;;;;;;18.55;11.30;;;;;18.40;96003.00;;;;8196885;28;20203;-68
2023/05/23 04:37:27;;;;;;;17.65;10.90;;;;;18.40;95999.00;;;;8213054;28;20207;-68
2023/05/23 04:41:32;;;;;;;15.05;10.07;;;;;18.60;96002.00;;;;8210766;28;20330;-65
2023/05/23 04:45:37;;;;;;;16.50;10.68;;;;;18.80;96006.00;;;;8215471;28;20207;-68
2023/05/23 04:49:41;;;;;;;16.65;11.32;;;;;19.00;96002.00;;;;8198352;28;20314;-67
2023/05/23 04:53:44;;;;;;;16.45;11.40;;;;;19.10;96009.00;;;;8213363;28;20295;-65
2023/05/23 04:57:50;;;;;;;15.27;11.07;;;;;19.60;96009.00;;;;8212371;28;20553;-67
2023/05/23 05:01:55;;;;;;;13.82;10.05;;;;;19.90;96002.00;;;;8218827;28;20263;-68
2023/05/23 05:06:00;;;;;;;21.08;10.95;;;;;20.20;96010.00;;;;8216452;28;20733;-66
2023/05/23 05:10:04;;;;;;;15.63;10.85;;;;;20.30;96017.00;;;;8211087;28;20235;-69
2023/05/23 05:14:07;;;;;;;16.42;10.88;;;;;20.40;96017.00;;;;8207500;28;20220;-65
2023/05/23 05:18:12;;;;;;;17.30;10.25;;;;;20.50;96018.00;;;;8214349;28;20226;-65
2023/05/23 05:22:15;;;;;;;16.42;10.75;;;;;20.60;96034.00;;;;8211547;28;20254;-70
2023/05/23 05:26:20;;;;;;;15.05;10.93;;;;;20.80;96041.00;;;;8220114;28;20204;-67
2023/05/23 05:30:23;;;;;;;14.68;10.88;;;;;20.80;96039.00;;;;8215126;28;20322;-72
2023/05/23 05:34:29;;;;;;;16.33;10.68;;;;;20.80;96036.00;;;;8208884;28;20239;-66
2023/05/23 05:38:34;;;;;;;14.30;11.00;;;;;20.90;96031.00;;;;8213145;28;20286;-66
2023/05/23 05:42:37;;;;;;;15.05;10.02;;;;;21.00;96040.00;;;;8214611;28;20235;-70
2023/05/23 05:46:41;;;;;;;13.95;10.35;;;;;21.20;96048.00;;;;8209318;28;20246;-67
2023/05/23 05:50:45;;;;;;;12.95;9.65;;;;;21.20;96039.00;;;;8217322;28;20263;-68
2023/05/23 05:54:48;;;;;;;17.08;10.60;;;;;21.30;96042.00;;;;8213064;28;20207;-67
2023/05/23 05:58:54;;;;;;;14.73;10.40;;;;;21.30;96046.00;;;;8213592;28;20218;-67
2023/05/23 06:03:00;;;;;;;15.90;10.60;;;;;21.40;96051.00;;;;8204240;28;20394;-69
2023/05/23 06:07:12;;;;;;;17.95;10.35;;;;;21.60;96064.00;;;;8208034;28;20216;-66
2023/05/23 06:11:15;;;;;;;12.60;10.00;;;;;21.90;96078.00;;;;8216821;28;20756;-65
2023/05/23 06:15:18;;;;;;;14.90;10.23;;;;;22.20;96070.00;;;;8221019;28;20318;-68
2023/05/23 06:19:24;;;;;;;14.60;9.95;;;;;22.40;96076.00;;;;8207381;28;20299;-66
2023/05/23 06:23:28;;;;;;;12.30;9.35;;;;;23.00;96069.00;;;;8217776;28;20709;-65
2023/05/23 06:27:36;;;;;;;16.20;9.07;;;;;23.40;96082.00;;;;8207936;28;20559;-69
2023/05/23 06:31:39;;;;;;;13.43;9.93;;;;;24.10;96089.00;;;;8212166;28;20727;-66
2023/05/23 06:35:43;;;;;;;16.27;9.55;;;;;23.70;96091.00;;;;8222536;28;20266;-67
2023/05/23 06:39:48;;;;;;;13.65;9.38;;;;;23.20;96087.00;;;;8218672;28;20295;-67
2023/05/23 06:43:53;;;;;;;15.82;10.10;;;;;22.90;96086.00;;;;8211790;28;20290;-67
2023/05/23 06:48:00;;;;;;;11.23;9.13;;;;;22.80;96088.00;;;;8214988;28;20197;-67
2023/05/23 06:52:03;;;;;;;14.70;9.73;;;;;22.80;96101.00;;;;8216075;28;20278;-66
2023/05/23 06:56:09;;;;;;;12.95;9.43;;;;;22.50;96097.00;;;;8204651;28;20263;-65
2023/05/23 07:00:14;;;;;;;12.80;9.27;;;;;22.60;96106.00;;;;8211933;28;20237;-67
2023/05/23 07:04:17;;;;;;;16.65;9.95;;;;;22.80;96109.00;;;;8209298;28;20231;-65
2023/05/23 07:08:24;;;;;;;13.25;9.90;;;;;22.90;96115.00;;;;8206077;28;20765;-66
2023/05/23 07:12:30;;;;;;;10.43;9.27;;;;;23.20;96117.00;;;;8208119;28;20249;-66
2023/05/23 07:16:39;;;;;;;16.15;9.95;;;;;23.40;96110.00;;;;8191703;28;20210;-62
2023/05/23 07:20:43;;;;;;;13.90;9.02;;;;;23.80;96115.00;;;;8208174;28;20205;-67
2023/05/23 07:24:48;;;;;;;11.77;8.07;;;;;24.20;96123.00;;;;8206303;28;20336;-63
2023/05/23 07:28:52;;;;;;;12.60;8.50;;;;;24.10;96127.00;;;;8212676;28;20598;-67
2023/05/23 07:32:58;;;;;;;12.07;8.68;;;;;24.20;96133.00;;;;8212506;28;20227;-64
2023/05/23 07:37:04;;;;;;;12.70;8.60;;;;;24.70;96134.00;;;;8207731;28;20672;-63
2023/05/23 07:41:10;;;;;;;11.02;8.18;;;;;24.60;96134.00;;;;8194922;28;20200;-63
2023/05/23 07:45:16;;;;;;;13.40;8.35;;;;;25.30;96133.00;;;;8200281;28;20215;-64
2023/05/23 07:49:19;;;;;;;13.48;8.68;;;;;25.50;96132.00;;;;8202462;28;20211;-65
2023/05/23 07:53:25;;;;;;;15.40;8.20;;;;;26.00;96134.00;;;;8211061;28;20242;-66
2023/05/23 07:57:34;;;;;;;10.88;8.50;;;;;26.40;96134.00;;;;8217960;28;20370;-63
2023/05/23 08:01:39;;;;;;;9.75;8.15;;;;;26.70;96142.00;;;;8205208;28;20321;-68
2023/05/23 08:05:45;;;;;;;12.02;8.02;;;;;26.70;96136.00;;;;8205845;28;20255;-65
2023/05/23 08:09:48;;;;;;;9.77;8.43;;;;;26.90;96145.00;;;;8199974;28;20358;-62
2023/05/23 08:13:54;;;;;;;10.40;8.00;;;;;26.80;96137.00;;;;8209459;28;20824;-63
2023/05/23 08:17:59;;;;;;;10.32;7.82;;;;;26.70;96152.00;;;;8210387;28;20235;-66
2023/05/23 08:22:08;;;;;;;11.73;8.30;;;;;27.20;96159.00;;;;8217718;28;20445;-64
2023/05/23 08:26:11;;;;;;;11.18;8.40;;;;;27.30;96163.00;;;;8210988;28;20206;-63
2023/05/23 08:30:17;;;;;;;7.57;6.75;;;;;26.90;96167.00;;;;8221431;28;20271;-65
2023/05/23 08:34:24;;;;;;;9.23;8.10;;;;;26.60;96160.00;;;;8214040;28;20770;-65
2023/05/23 08:38:30;;;;;;;12.05;8.10;;;;;26.70;96165.00;;;;8219995;28;20204;-63
2023/05/23 08:42:36;;;;;;;11.75;8.38;;;;;26.60;96168.00;;;;8210094;28;20239;-64
2023/05/23 08:46:45;;;;;;;12.27;8.75;;;;;26.20;96165.00;;;;8212833;28;20323;-67
2023/05/23 08:50:53;;;;;;;12.13;7.88;;;;;25.70;96167.00;;;;8211278;28;20232;-64
2023/05/23 08:54:58;;;;;;;9.38;7.65;;;;;26.30;96178.00;;;;8211079;28;20314;-63
2023/05/23 08:59:02;;;;;;;11.90;8.48;;;;;26.60;96172.00;;;;8216598;28;20625;-66
2023/05/23 09:03:06;;;;;;;10.55;7.50;;;;;26.30;96179.00;;;;8218913;28;20849;-65
2023/05/23 09:07:15;;;;;;;13.18;8.30;;;;;26.00;96184.00;;;;8221346;28;20215;-66
2023/05/23 09:11:23;;;;;;;10.70;8.13;;;;;26.10;96179.00;;;;8218988;28;20216;-65
2023/05/23 09:15:26;;;;;;;8.60;7.50;;;;;26.40;96186.00;;;;8209529;28;20207;-66
2023/05/23 09:19:29;;;;;;;13.98;7.63;;;;;26.30;96202.00;;;;8217897;28;20210;-62
2023/05/23 09:23:39;;;;;;;10.85;8.70;;;;;25.60;96206.00;;;;8220507;28;20238;-66
2023/05/23 09:27:42;;;;;;;13.10;7.45;;;;;25.30;96210.00;;;;8215484;28;20228;-64
2023/05/23 09:31:50;;;;;;;9.70;8.27;;;;;25.10;96205.00;;;;8209789;28;20258;-65
2023/05/23 09:35:54;;;;;;;12.38;7.82;;;;;25.20;96207.00;;;;8215486;28;20736;-62
2023/05/23 09:39:59;;;;;;;12.40;8.85;;;;;26.20;96196.00;;;;8218935;28;20657;-63
2023/05/23 09:44:06;;;;;;;11.00;8.00;;;;;27.20;96194.00;;;;8223296;28;20573;-65
2023/05/23 09:48:13;;;;;;;9.75;7.40;;;;;28.10;96208.00;;;;8212222;28;20254;-63
2023/05/23 09:52:19;;;;;;;17.73;8.73;;;;;28.40;96207.00;;;;8209455;28;20244;-68
2023/05/23 09:56:24;;;;;;;13.70;8.48;;;;;28.20;96207.00;;;;8206420;28;20208;-65
2023/05/23 10:00:31;;;;;;;12.10;9.00;;;;;28.00;96206.00;;;;8207226;28;20211;-64
2023/05/23 10:04:36;;;;;;;10.95;8.93;;;;;27.70;96200.00;;;;8198358;28;20596;-66
2023/05/23 10:08:43;;;;;;;10.40;8.10;;;;;27.70;96202.00;;;;8209769;28;20287;-65
2023/05/23 10:12:51;;;;;;;11.25;9.15;;;;;28.00;96204.00;;;;8201454;28;20589;-64
2023/05/23 10:17:01;;;;;;;11.70;9.27;;;;;27.30;96203.00;;;;8209705;28;20220;-66
2023/05/23 10:21:20;;;;;;;9.10;7.93;;;;;26.90;96203.00;;;;8212427;28;20352;-67
2023/05/23 10:25:24;;;;;;;13.65;9.13;;;;;26.10;96206.00;;;;8209613;28;20290;-63
2023/05/23 10:29:29;;;;;;;16.40;9.88;;;;;25.60;96215.00;;;;8216154;28;20679;-63
2023/05/23 10:33:43;;;;;;;13.80;9.02;;;;;25.20;96206.00;;;;8214867;28;20239;-67
2023/05/23 10:37:56;;;;;;;15.65;8.40;;;;;25.80;96205.00;;;;8207605;28;20212;-66
2023/05/23 10:42:06;;;;;;;14.57;9.32;;;;;26.10;96202.00;;;;8210268;28;20654;-63
2023/05/23 10:46:19;;;;;;;11.43;8.95;;;;;26.60;96208.00;;;;8206455;28;20602;-65
2023/05/23 10:50:33;;;;;;;13.20;8.93;;;;;26.80;96201.00;;;;8201005;28;20223;-62
2023/05/23 10:54:44;;;;;;;11.85;8.20;;;;;26.90;96201.00;;;;8216464;28;20216;-64
2023/05/23 10:58:47;;;;;;;13.13;8.77;;;;;27.60;96216.00;;;;8208305;28;20208;-62
2023/05/23 11:03:00;;;;;;;10.00;8.10;;;;;28.10;96199.00;;;;8203768;28;20713;-63
2023/05/23 11:07:03;;;;;;;12.45;8.63;;;;;27.80;96194.00;;;;8207379;28;20208;-65
2023/05/23 11:11:07;;;;;;;15.43;9.07;;;;;27.00;96196.00;;;;8206908;28;20234;-65
2023/05/23 11:15:20;;;;;;;9.80;7.85;;;;;26.90;96193.00;;;;8208452;28;20204;-71
2023/05/23 11:19:28;;;;;;;10.38;8.55;;;;;26.60;96191.00;;;;8199222;28;20315;-64
2023/05/23 11:23:40;;;;;;;10.15;8.30;;;;;27.50;96186.00;;;;8203082;28;20203;-66
2023/05/23 11:27:46;;;;;;;10.90;7.95;;;;;28.90;96175.00;;;;8207699;28;20208;-64
2023/05/23 11:31:49;;;;;;;11.43;7.82;;;;;28.30;96192.00;;;;8205927;28;20254;-68
2023/05/23 11:35:54;;;;;;;9.63;7.53;;;;;27.90;96179.00;;;;8204955;28;20643;-67
2023/05/23 11:39:57;;;;;;;8.57;7.22;;;;;28.10;96196.00;;;;8205333;28;20473;-63
2023/05/23 11:44:10;;;;;;;9.65;7.53;;;;;28.30;96174.00;;;;8211317;28;20203;-64
2023/05/23 11:48:17;;;;;;;10.20;7.72;;;;;29.10;96185.00;;;;8199853;28;20200;-67
2023/05/23 11:52:24;;;;;;;11.45;7.35;;;;;29.30;96193.00;;;;8198359;28;20235;-65
2023/05/23 11:56:28;;;;;;;8.75;7.03;;;;;29.20;96171.00;;;;8201528;28;20314;-66
2023/05/23 12:00:35;;;;;;;14.05;7.32;;;;;29.40;96182.00;;;;8206403;28;20624;-66
2023/05/23 12:04:38;;;;;;;10.38;7.40;;;;;28.60;96172.00;;;;8211989;28;20277;-66
2023/05/23 12:08:43;;;;;;;10.00;7.70;;;;;28.30;96184.00;;;;8215799;28;20788;-65
2023/05/23 12:12:48;;;;;;;9.55;7.80;;;;;29.10;96180.00;;;;8209395;28;20239;-69
2023/05/23 12:16:57;;;;;;;10.77;7.28;;;;;29.70;96195.00;;;;8205528;28;20295;-64
2023/05/23 12:21:01;;;;;;;7.95;6.90;;;;;29.80;96186.00;;;;8206802;28;20201;-64
2023/05/23 12:25:09;;;;;;;9.38;6.72;;;;;29.70;96180.00;;;;8217893;28;20719;-65
2023/05/23 12:29:18;;;;;;;10.73;7.93;;;;;28.90;96200.00;;;;8209099;28;20296;-69
2023/05/23 12:33:22;;;;;;;11.88;7.57;;;;;27.20;96208.00;;;;8216274;28;20227;-64
2023/05/23 12:37:25;;;;;;;9.05;6.57;;;;;26.40;96196.00;;;;8214897;28;20239;-65
2023/05/23 12:41:30;;;;;;;8.23;6.95;;;;;26.40;96213.00;;;;8225446;28;20318;-66
2023/05/23 12:45:35;;;;;;;8.00;6.63;;;;;26.30;96199.00;;;;8207190;28;20211;-65
2023/05/23 12:49:39;;;;;;;13.25;7.30;;;;;26.30;96204.00;;;;8212454;28;20267;-67
2023/05/23 12:53:42;;;;;;;8.82;6.32;;;;;26.40;96197.00;;;;8217149;28;20252;-64
2023/05/23 12:57:48;;;;;;;8.10;6.40;;;;;26.50;96199.00;;;;8218584;28;20291;-64
2023/05/23 13:01:52;;;;;;;7.75;6.28;;;;;26.50;96206.00;;;;8199775;28;20373;-69
2023/05/23 13:05:56;;;;;;;9.75;6.55;;;;;26.50;96212.00;;;;8205895;28;20199;-63
2023/05/23 13:10:01;;;;;;;9.70;6.22;;;;;26.20;96216.00;;;;8215087;28;20246;-68
2023/05/23 13:14:06;;;;;;;7.15;5.63;;;;;26.00;96229.00;;;;8212300;28;20261;-66
2023/05/23 13:18:09;;;;;;;11.75;6.93;;;;;25.90;96227.00;;;;8208968;28;20861;-64
2023/05/23 13:22:14;;;;;;;11.02;5.97;;;;;25.90;96234.00;;;;8215647;28;21005;-68
2023/05/23 13:26:21;;;;;;;9.77;6.53;;;;;25.60;96233.00;;;;8212853;28;20238;-69
2023/05/23 13:30:29;;;;;;;13.93;6.82;;;;;25.20;96236.00;;;;8213615;28;20287;-66
2023/05/23 13:34:36;;;;;;;7.90;5.88;;;;;25.00;96234.00;;;;8211199;28;20548;-65
2023/05/23 13:38:41;;;;;;;7.97;5.55;;;;;24.80;96239.00;;;;8216785;28;20894;-67
2023/05/23 13:42:47;;;;;;;7.80;6.20;;;;;24.80;96235.00;;;;8212182;28;20246;-65
2023/05/23 13:46:55;;;;;;;7.13;5.55;;;;;24.90;96223.00;;;;8210272;28;20210;-63
2023/05/23 13:50:59;;;;;;;7.10;5.55;;;;;24.60;96244.00;;;;8216387;28;20207;-63
2023/05/23 13:55:09;;;;;;;7.32;5.55;;;;;24.70;96227.00;;;;8219083;28;20239;-67
2023/05/23 13:59:19;;;;;;;5.35;4.82;;;;;24.50;96239.00;;;;8207986;28;20284;-65
2023/05/23 14:03:24;;;;;;;5.53;4.90;;;;;24.40;96245.00;;;;8208808;28;20243;-65
2023/05/23 14:07:31;;;;;;;8.27;5.25;;;;;24.10;96245.00;;;;8208439;28;20829;-64
2023/05/23 14:11:36;;;;;;;6.10;4.78;;;;;23.70;96250.00;;;;8219034;28;20238;-69
2023/05/23 14:15:42;;;;;;;8.07;4.60;;;;;23.40;96248.00;;;;8208223;28;20326;-68
2023/05/23 14:19:50;;;;;;;5.15;4.60;;;;;23.40;96245.00;;;;8205805;28;20262;-69
2023/05/23 14:23:56;;;;;;;5.72;4.78;;;;;23.40;96248.00;;;;8211639;28;20235;-67
2023/05/23 14:27:59;;;;;;;5.05;3.47;;;;;23.70;96235.00;;;;8204572;28;20214;-68
2023/05/23 14:32:06;;;;;;;4.78;3.90;;;;;23.80;96239.00;;;;8204471;28;20218;-66
2023/05/23 14:36:12;;;;;;;4.30;3.88;;;;;23.50;96248.00;;;;8213244;28;20195;-68
2023/05/23 14:40:16;;;;;;;4.18;3.83;;;;;23.30;96250.00;;;;8212590;28;20238;-65
2023/05/23 14:44:21;;;;;;;5.20;3.97;;;;;23.00;96257.00;;;;8214043;28;20779;-65
2023/05/23 14:48:25;;;;;;;4.30;3.90;;;;;22.90;96262.00;;;;8214345;28;20250;-69
2023/05/23 14:52:29;;;;;;;4.05;3.75;;;;;23.00;96255.00;;;;8212402;28;20263;-66
2023/05/23 14:56:32;;;;;;;3.95;3.65;;;;;23.50;96254.00;;;;8213814;28;20318;-63
2023/05/23 15:00:35;;;;;;;3.63;3.08;;;;;23.40;96247.00;;;;8201839;28;20239;-67
2023/05/23 15:04:39;;;;;;;3.17;2.92;;;;;23.60;96250.00;;;;8208734;28;20236;-68
2023/05/23 15:08:47;;;;;;;4.70;3.50;;;;;23.20;96258.00;;;;8216309;28;20207;-67
2023/05/23 15:12:51;;;;;;;6.13;3.05;;;;;23.10;96260.00;;;;8206240;28;20280;-67
2023/05/23 15:16:55;;;;;;;3.60;3.15;;;;;23.10;96260.00;;;;8207697;28;21036;-67
2023/05/23 15:20:59;;;;;;;3.60;3.30;;;;;23.10;96256.00;;;;8207371;28;20292;-66
2023/05/23 15:25:06;;;;;;;4.13;3.40;;;;;23.80;96246.00;;;;8209961;28;20212;-68
2023/05/23 15:29:11;;;;;;;3.25;3.00;;;;;24.80;96258.00;;;;8211404;28;20247;-67
2023/05/23 15:33:14;;;;;;;2.90;2.70;;;;;25.20;96264.00;;;;8208184;28;20235;-70
2023/05/23 15:37:18;;;;;;;2.90;2.70;;;;;25.00;96261.00;;;;8198769;28;21180;-70
2023/05/23 15:41:22;;;;;;;3.17;2.80;;;;;24.70;96256.00;;;;8202859;28;20203;-65
2023/05/23 15:45:26;;;;;;;6.82;3.40;;;;;24.60;96255.00;;;;8192634;28;20912;-67
2023/05/23 15:49:29;;;;;;;4.63;2.95;;;;;24.40;96259.00;;;;8205868;28;20203;-67
2023/05/23 15:53:32;;;;;;;5.38;3.50;;;;;23.90;96262.00;;;;8202113;28;20684;-68
2023/05/23 15:57:51;;;;;;;4.43;2.65;;;;;23.70;96267.00;;;;8211621;28;20200;-65
2023/05/23 16:01:54;;;;;;;3.20;2.90;;;;;23.40;96274.00;;;;8205961;28;20664;-67
2023/05/23 16:05:59;;;;;;;4.75;3.38;;;;;23.00;96272.00;;;;8209574;28;20201;-69
2023/05/23 16:10:07;;;;;;;4.70;3.05;;;;;22.60;96270.00;;;;8215591;28;20211;-66
2023/05/23 16:14:13;;;;;;;4.72;3.33;;;;;22.50;96271.00;;;;8219362;28;20227;-66
2023/05/23 16:18:16;;;;;;;3.53;3.22;;;;;22.80;96269.00;;;;8210721;28;20951;-62
2023/05/23 16:22:28;;;;;;;4.68;3.40;;;;;22.90;96264.00;;;;8207782;28;20590;-68
2023/05/23 16:26:32;;;;;;;4.18;3.72;;;;;23.30;96271.00;;;;8212967;28;20306;-69
2023/05/23 16:30:40;;;;;;;3.97;3.58;;;;;23.80;96275.00;;;;8210987;28;20295;-71
2023/05/23 16:34:44;;;;;;;4.03;3.30;;;;;24.10;96268.00;;;;8212126;28;20277;-68
2023/05/23 16:38:55;;;;;;;4.75;3.08;;;;;24.60;96286.00;;;;8208104;28;20212;-67
2023/05/23 16:42:58;;;;;;;4.68;3.30;;;;;24.60;96279.00;;;;8187907;28;20781;-65
2023/05/23 16:47:04;;;;;;;3.70;3.40;;;;;24.60;96287.00;;;;8210915;28;20357;-69
2023/05/23 16:51:07;;;;;;;5.47;3.13;;;;;24.30;96278.00;;;;8214082;28;20212;-67
2023/05/23 16:55:12;;;;;;;5.13;3.53;;;;;24.20;96289.00;;;;8223601;28;20795;-72
2023/05/23 16:59:17;;;;;;;6.97;3.30;;;;;23.90;96288.00;;;;8219966;28;20286;-67
2023/05/23 17:03:22;;;;;;;3.17;2.90;;;;;23.50;96292.00;;;;8213940;28;20266;-66
2023/05/23 17:07:27;;;;;;;3.28;2.97;;;;;23.10;96284.00;;;;8222165;28;20669;-69
2023/05/23 17:11:30;;;;;;;3.40;2.95;;;;;22.80;96281.00;;;;8220463;28;20239;-66
2023/05/23 17:15:35;;;;;;;3.78;3.30;;;;;22.40;96280.00;;;;8217093;28;20270;-68
2023/05/23 17:19:40;;;;;;;4.43;3.55;;;;;22.30;96291.00;;;;8223710;28;20724;-66
2023/05/23 17:23:43;;;;;;;3.88;3.58;;;;;22.40;96284.00;;;;8221523;28;20247;-70
2023/05/23 17:27:46;;;;;;;3.90;3.35;;;;;22.10;96295.00;;;;8221338;28;20207;-64
2023/05/23 17:31:50;;;;;;;3.92;3.00;;;;;22.50;96298.00;;;;8218435;28;20228;-70
2023/05/23 17:35:56;;;;;;;3.35;3.00;;;;;22.80;96299.00;;;;8221979;28;20314;-64
2023/05/23 17:40:01;;;;;;;5.80;3.30;;;;;22.50;96303.00;;;;8223147;28;20377;-67
2023/05/23 17:44:04;;;;;;;3.13;2.92;;;;;21.90;96305.00;;;;8224007;28;20208;-68
2023/05/23 17:48:11;;;;;;;3.22;2.97;;;;;21.40;96311.00;;;;8220384;28;20208;-65
2023/05/23 17:52:19;;;;;;;3.55;3.25;;;;;20.90;96305.00;;;;8222345;28;20204;-65
2023/05/23 17:56:23;;;;;;;3.33;3.03;;;;;20.40;96302.00;;;;8217934;28;20270;-67
2023/05/23 18:00:26;;;;;;;3.22;2.90;;;;;20.10;96309.00;;;;8223231;28;20200;-65
2023/05/23 18:04:29;;;;;;;3.63;3.33;;;;;19.80;96308.00;;;;8222730;28;20243;-70
2023/05/23 18:08:34;;;;;;;3.08;2.75;;;;;19.60;96309.00;;;;8212895;28;20208;-67
2023/05/23 18:12:46;;;;;;;3.63;3.00;;;;;19.40;96314.00;;;;8219398;28;20199;-66
2023/05/23 18:16:52;;;;;;;3.47;3.17;;;;;19.30;96314.00;;;;8219793;28;20338;-69
2023/05/23 18:20:55;;;;;;;3.92;3.55;;;;;19.20;96318.00;;;;8219811;28;20211;-71
2023/05/23 18:25:00;;;;;;;3.17;2.90;;;;;19.10;96320.00;;;;8219113;28;20829;-68
2023/05/23 18:29:12;;;;;;;4.88;3.13;;;;;19.00;96326.00;;;;8219157;28;20206;-66
2023/05/23 18:33:17;;;;;;;3.97;2.85;;;;;18.90;96315.00;;;;8214778;28;20203;-66
2023/05/23 18:37:20;;;;;;;3.60;3.30;;;;;18.70;96317.00;;;;8213865;28;20791;-68
2023/05/23 18:41:30;;;;;;;4.60;3.30;;;;;18.50;96323.00;;;;8219955;28;20302;-69
2023/05/23 18:45:33;;;;;;;3.30;3.00;;;;;18.40;96329.00;;;;8218743;28;20864;-66
2023/05/23 18:49:38;;;;;;;3.47;3.13;;;;;18.40;96335.00;;;;8219398;28;20220;-71
2023/05/23 18:53:42;;;;;;;4.63;3.20;;;;;18.30;96350.00;;;;8201449;28;20204;-65
2023/05/23 18:57:47;;;;;;;3.47;3.17;;;;;18.20;96350.00;;;;8219335;28;20210;-67
2023/05/23 19:01:51;;;;;;;3.40;2.95;;;;;18.20;96349.00;;;;8218596;28;20342;-67
2023/05/23 19:05:58;;;;;;;4.40;3.17;;;;;18.10;96360.00;;;;8219461;28;20219;-68
2023/05/23 19:10:03;;;;;;;3.88;3.47;;;;;18.00;96355.00;;;;8217061;28;20203;-69
2023/05/23 19:14:07;;;;;;;3.33;3.03;;;;;18.00;96362.00;;;;8220212;28;20677;-65
2023/05/23 19:18:11;;;;;;;4.72;3.70;;;;;17.90;96367.00;;;;8201375;28;20195;-66
2023/05/23 19:22:14;;;;;;;3.42;3.13;;;;;17.80;96377.00;;;;8219161;28;20239;-67
2023/05/23 19:26:18;;;;;;;3.60;3.28;;;;;17.80;96383.00;;;;8208376;28;20250;-68
2023/05/23 19:30:27;;;;;;;3.33;3.08;;;;;17.70;96386.00;;;;8214011;28;20212;-67
2023/05/23 19:34:33;;;;;;;3.47;3.10;;;;;17.60;96392.00;;;;8192908;28;20251;-67
2023/05/23 19:38:39;;;;;;;3.10;2.90;;;;;17.60;96393.00;;;;8207041;28;20237;-66
2023/05/23 19:42:47;;;;;;;6.53;3.00;;;;;17.60;96398.00;;;;8209483;28;20262;-71
2023/05/23 19:46:55;;;;;;;3.92;3.20;;;;;17.50;96406.00;;;;8205591;28;20294;-66
2023/05/23 19:50:59;;;;;;;3.28;2.97;;;;;17.50;96415.00;;;;8200789;28;20215;-68
2023/05/23 19:55:02;;;;;;;6.07;3.38;;;;;17.40;96424.00;;;;8185287;28;20709;-66
2023/05/23 19:59:06;;;;;;;4.53;3.00;;;;;17.40;96426.00;;;;8202381;28;20245;-69
2023/05/23 20:03:12;;;;;;;3.35;3.05;;;;;17.50;96431.00;;;;8201576;28;20228;-69
2023/05/23 20:07:15;;;;;;;3.15;2.85;;;;;17.50;96428.00;;;;8206623;28;20210;-65
2023/05/23 20:11:19;;;;;;;3.40;3.15;;;;;17.50;96434.00;;;;8209126;28;20886;-72
2023/05/23 20:15:22;;;;;;;7.93;3.55;;;;;17.40;96451.00;;;;8204870;28;20369;-66